Time;durP1;ratioP1;P1;durP2;ratioP2;P2;SDS_P1;SDS_P2;PMS_P1;PMS_P2;Temp;Humidity;BMP_temperature;BMP_pressure;BME280_temperature;BME280_humidity;BME280_pressure;Samples;Min_cycle;Max_cycle;Signal;HPM_P1;HPM_P2
2021/05/10 00:00:56;;;;;;;6.43;4.72;;;7.80;53.30;;;;;;5053104;28;20051;-92
2021/05/10 00:03:23;;;;;;;4.72;3.60;;;7.80;53.30;;;;;;5035087;28;20073;-90
2021/05/10 00:05:51;;;;;;;5.70;3.67;;;7.70;53.30;;;;;;5052236;28;20021;-91
2021/05/10 00:08:16;;;;;;;5.30;3.35;;;7.70;53.70;;;;;;5050310;28;20016;-91
2021/05/10 00:10:43;;;;;;;6.13;3.70;;;7.70;53.60;;;;;;5058594;28;20039;-92
2021/05/10 00:13:12;;;;;;;5.53;4.35;;;7.70;53.70;;;;;;5064866;28;20024;-90
2021/05/10 00:15:38;;;;;;;5.68;4.05;;;7.70;53.70;;;;;;5070799;28;20364;-89
2021/05/10 00:18:04;;;;;;;6.22;4.60;;;7.60;53.80;;;;;;5049010;28;20020;-88
2021/05/10 00:20:41;;;;;;;3.60;2.85;;;7.60;53.90;;;;;;5050267;28;20090;-89
2021/05/10 00:23:07;;;;;;;5.32;3.00;;;7.60;53.80;;;;;;5047250;28;20488;-90
2021/05/10 00:25:33;;;;;;;4.45;3.83;;;7.60;53.70;;;;;;5060513;28;20084;-90
2021/05/10 00:27:59;;;;;;;7.07;3.97;;;7.60;53.50;;;;;;5060923;28;20029;-91
2021/05/10 00:30:25;;;;;;;4.25;3.00;;;7.60;53.70;;;;;;5053952;28;20028;-88
2021/05/10 00:32:53;;;;;;;6.28;3.35;;;7.60;53.50;;;;;;5061083;28;20025;-94
2021/05/10 00:35:20;;;;;;;5.07;3.10;;;7.60;53.70;;;;;;5041245;28;20056;-90
2021/05/10 00:37:45;;;;;;;6.05;3.75;;;7.50;53.80;;;;;;5058822;28;20538;-91
2021/05/10 00:40:14;;;;;;;6.43;3.38;;;7.60;53.80;;;;;;5040337;28;20059;-88
2021/05/10 00:42:40;;;;;;;4.47;3.58;;;7.50;53.80;;;;;;5037700;28;20049;-88
2021/05/10 00:45:07;;;;;;;6.03;3.33;;;7.50;53.90;;;;;;5055683;28;20017;-88
2021/05/10 00:47:34;;;;;;;7.00;2.97;;;7.50;54.40;;;;;;5056585;28;20036;-90
2021/05/10 00:49:59;;;;;;;7.38;3.38;;;7.40;54.10;;;;;;5055602;28;20352;-89
2021/05/10 00:52:26;;;;;;;4.97;3.15;;;7.40;54.10;;;;;;5055876;28;20106;-93
2021/05/10 00:54:54;;;;;;;5.13;2.60;;;7.30;54.20;;;;;;5057331;28;20028;-91
2021/05/10 00:57:20;;;;;;;7.50;2.70;;;7.40;54.10;;;;;;5060376;28;20018;-89
2021/05/10 00:59:49;;;;;;;3.72;2.65;;;7.30;53.90;;;;;;5055038;28;20049;-89
2021/05/10 01:02:16;;;;;;;4.07;2.40;;;7.30;53.50;;;;;;5058882;28;20122;-89
2021/05/10 01:04:42;;;;;;;4.53;2.65;;;7.30;53.00;;;;;;5076571;28;20032;-89
2021/05/10 01:07:08;;;;;;;4.70;2.63;;;7.40;53.10;;;;;;5068627;28;20505;-89
2021/05/10 01:09:34;;;;;;;5.20;3.50;;;7.30;53.50;;;;;;5061373;28;20128;-90
2021/05/10 01:12:00;;;;;;;7.45;3.03;;;7.30;54.10;;;;;;5043650;28;20025;-90
2021/05/10 01:14:26;;;;;;;5.90;2.95;;;7.20;53.00;;;;;;5063379;28;20029;-91
2021/05/10 01:16:51;;;;;;;4.20;2.30;;;7.20;52.90;;;;;;5070093;28;20017;-90
2021/05/10 01:19:19;;;;;;;2.70;2.05;;;7.20;52.90;;;;;;5039731;28;20182;-90
2021/05/10 01:21:47;;;;;;;4.60;2.70;;;7.20;52.60;;;;;;5074221;28;20023;-90
2021/05/10 01:24:13;;;;;;;4.97;2.75;;;7.20;52.40;;;;;;5060038;28;20053;-89
2021/05/10 01:26:39;;;;;;;3.08;2.60;;;7.20;51.80;;;;;;5060692;28;20375;-91
2021/05/10 01:29:05;;;;;;;3.25;2.42;;;7.20;52.10;;;;;;5042973;28;20044;-90
2021/05/10 01:31:31;;;;;;;4.70;2.50;;;7.20;51.50;;;;;;5032165;28;20470;-89
2021/05/10 01:33:57;;;;;;;3.67;2.40;;;7.20;51.10;;;;;;5028101;28;20120;-90
2021/05/10 01:36:22;;;;;;;4.93;2.30;;;7.20;51.20;;;;;;5043625;28;20104;-89
2021/05/10 01:38:48;;;;;;;5.68;2.67;;;7.20;51.10;;;;;;5040388;28;20035;-89
2021/05/10 01:41:14;;;;;;;4.10;2.70;;;7.20;50.70;;;;;;5057478;28;20493;-91
2021/05/10 01:43:40;;;;;;;4.55;2.72;;;7.20;50.90;;;;;;5042548;28;20112;-88
2021/05/10 01:46:06;;;;;;;4.10;2.35;;;7.20;50.80;;;;;;5061439;28;20048;-90
2021/05/10 01:48:32;;;;;;;6.60;2.88;;;7.30;50.70;;;;;;5058727;28;20094;-87
2021/05/10 01:50:58;;;;;;;5.47;2.50;;;7.30;50.80;;;;;;5041594;28;20033;-88
2021/05/10 01:53:24;;;;;;;3.83;2.72;;;7.30;50.80;;;;;;5059621;28;20056;-89
2021/05/10 01:55:50;;;;;;;2.95;2.10;;;7.30;50.90;;;;;;5041263;28;20021;-90
2021/05/10 01:58:16;;;;;;;4.70;2.40;;;7.20;50.80;;;;;;5038051;28;20121;-88
2021/05/10 02:00:47;;;;;;;3.65;2.22;;;7.30;50.90;;;;;;5057867;28;20017;-89
2021/05/10 02:03:15;;;;;;;3.92;2.72;;;7.30;50.10;;;;;;5043284;28;20021;-89
2021/05/10 02:05:41;;;;;;;2.22;2.03;;;7.40;49.90;;;;;;5062216;28;20036;-88
2021/05/10 02:08:10;;;;;;;5.40;2.25;;;7.40;49.90;;;;;;5064369;28;20036;-86
2021/05/10 02:10:38;;;;;;;5.10;2.67;;;7.50;50.20;;;;;;5059802;28;20072;-90
2021/05/10 02:13:13;;;;;;;3.17;2.10;;;7.50;49.80;;;;;;5039740;28;20025;-89
2021/05/10 02:15:42;;;;;;;3.38;2.05;;;7.50;50.00;;;;;;5057361;28;20025;-88
2021/05/10 02:18:09;;;;;;;4.38;2.83;;;7.50;50.00;;;;;;5055437;28;20072;-88
2021/05/10 02:20:36;;;;;;;4.70;2.50;;;7.50;49.40;;;;;;5038813;28;20083;-89
2021/05/10 02:23:07;;;;;;;4.03;2.35;;;7.60;49.80;;;;;;5059798;28;20033;-91
2021/05/10 02:25:37;;;;;;;2.90;1.80;;;7.60;49.90;;;;;;5055132;28;20398;-90
2021/05/10 02:28:07;;;;;;;3.22;2.33;;;7.70;49.70;;;;;;5059557;28;20508;-89
2021/05/10 02:30:35;;;;;;;2.80;1.73;;;7.70;49.30;;;;;;5065366;28;20017;-87
2021/05/10 02:33:06;;;;;;;3.53;2.00;;;7.80;49.00;;;;;;5040569;28;20032;-91
2021/05/10 02:35:32;;;;;;;4.45;2.25;;;7.90;48.60;;;;;;5058581;28;20052;-90
2021/05/10 02:37:58;;;;;;;6.50;2.40;;;7.90;48.40;;;;;;5041183;28;20032;-91
2021/05/10 02:40:24;;;;;;;3.85;2.08;;;8.00;48.40;;;;;;5057645;28;20016;-91
2021/05/10 02:42:50;;;;;;;3.65;2.20;;;8.10;48.00;;;;;;5049920;28;20048;-91
2021/05/10 02:45:17;;;;;;;2.78;2.03;;;8.30;47.80;;;;;;5060914;28;20016;-93
2021/05/10 02:47:44;;;;;;;3.08;2.33;;;8.30;47.20;;;;;;5044767;28;20031;-89
2021/05/10 02:50:12;;;;;;;3.10;1.80;;;8.40;47.20;;;;;;5063225;28;20021;-89
2021/05/10 02:52:38;;;;;;;4.25;2.25;;;8.50;46.90;;;;;;5049536;28;20028;-90
2021/05/10 02:55:08;;;;;;;3.22;2.00;;;8.60;46.30;;;;;;5059821;28;20031;-90
2021/05/10 02:57:34;;;;;;;3.63;2.05;;;8.70;46.00;;;;;;5047402;28;20033;-89
2021/05/10 03:00:00;;;;;;;4.18;2.40;;;8.70;45.90;;;;;;5052807;28;20096;-89
2021/05/10 03:02:26;;;;;;;2.95;2.03;;;8.80;45.00;;;;;;5060995;28;20434;-90
2021/05/10 03:04:52;;;;;;;3.08;1.92;;;8.80;44.90;;;;;;5078412;28;20017;-90
2021/05/10 03:07:18;;;;;;;3.03;2.05;;;8.90;44.80;;;;;;5059497;28;20033;-90
2021/05/10 03:09:45;;;;;;;4.65;2.15;;;8.90;44.10;;;;;;5056672;28;20035;-90
2021/05/10 03:12:11;;;;;;;4.10;2.00;;;9.00;44.40;;;;;;5060385;28;20607;-91
2021/05/10 03:14:36;;;;;;;3.90;2.15;;;9.00;44.00;;;;;;5039595;28;20041;-89
2021/05/10 03:17:03;;;;;;;5.05;2.00;;;9.10;44.00;;;;;;5040379;28;20031;-90
2021/05/10 03:19:28;;;;;;;2.28;1.60;;;9.20;44.10;;;;;;5058101;28;20067;-89
2021/05/10 03:21:54;;;;;;;4.32;2.03;;;9.30;43.50;;;;;;5048974;28;20022;-88
2021/05/10 03:24:20;;;;;;;4.28;1.90;;;9.40;43.30;;;;;;5062584;28;20042;-90
2021/05/10 03:26:47;;;;;;;4.97;2.50;;;9.40;42.70;;;;;;5070540;28;20033;-90
2021/05/10 03:29:12;;;;;;;3.15;2.05;;;9.50;42.60;;;;;;5051764;28;20065;-89
2021/05/10 03:31:38;;;;;;;2.00;1.50;;;9.50;42.30;;;;;;5052170;28;20045;-91
2021/05/10 03:34:04;;;;;;;3.53;2.00;;;9.60;41.60;;;;;;5038590;28;20414;-89
2021/05/10 03:36:31;;;;;;;3.67;1.98;;;9.70;41.90;;;;;;5056763;28;20025;-92
2021/05/10 03:38:57;;;;;;;4.75;2.10;;;9.70;41.70;;;;;;5056252;28;20026;-93
2021/05/10 03:41:23;;;;;;;2.67;1.80;;;9.80;41.40;;;;;;5044404;28;20025;-93
2021/05/10 03:43:50;;;;;;;2.90;1.75;;;9.80;41.30;;;;;;5049303;28;20029;-89
2021/05/10 03:46:15;;;;;;;4.25;1.98;;;9.80;41.60;;;;;;5072917;28;20027;-88
2021/05/10 03:48:41;;;;;;;3.15;2.10;;;9.90;41.20;;;;;;5071235;28;20061;-89
2021/05/10 03:51:07;;;;;;;4.18;2.25;;;9.90;41.00;;;;;;5051672;28;20033;-88
2021/05/10 03:53:33;;;;;;;2.88;2.05;;;10.00;40.90;;;;;;5055199;28;20017;-89
2021/05/10 03:55:59;;;;;;;3.40;1.83;;;10.00;41.00;;;;;;5046942;28;20029;-88
2021/05/10 03:58:25;;;;;;;3.95;1.70;;;10.00;40.80;;;;;;5061309;28;20025;-91
2021/05/10 04:00:52;;;;;;;3.30;2.35;;;10.00;39.60;;;;;;5058293;28;20017;-90
2021/05/10 04:03:19;;;;;;;2.55;1.65;;;10.00;40.10;;;;;;5059003;28;20021;-90
2021/05/10 04:16:06;;;;;;;4.25;1.98;;;9.90;39.20;;;;;;5055844;28;20021;-88
2021/05/10 04:18:38;;;;;;;3.47;2.03;;;9.90;40.10;;;;;;5056131;28;20464;-92
2021/05/10 04:21:04;;;;;;;2.42;1.60;;;10.00;40.50;;;;;;5037953;28;20477;-90
2021/05/10 04:23:30;;;;;;;2.90;1.95;;;10.10;39.90;;;;;;5055714;28;20020;-90
2021/05/10 04:25:56;;;;;;;2.50;1.50;;;10.10;39.50;;;;;;5054391;28;20056;-89
2021/05/10 04:28:23;;;;;;;3.60;1.77;;;10.10;39.50;;;;;;5054321;28;20470;-88
2021/05/10 04:30:50;;;;;;;2.78;1.40;;;10.20;40.30;;;;;;5030143;28;20044;-92
2021/05/10 04:33:16;;;;;;;3.95;2.17;;;10.20;40.00;;;;;;5029893;28;20037;-88
2021/05/10 04:35:42;;;;;;;3.80;1.92;;;10.30;40.00;;;;;;5036506;28;20017;-91
2021/05/10 04:38:11;;;;;;;6.13;1.90;;;10.40;39.10;;;;;;5063470;28;20021;-89
2021/05/10 04:40:38;;;;;;;2.70;1.70;;;10.40;39.20;;;;;;5061787;28;20013;-89
2021/05/10 04:43:05;;;;;;;2.80;1.40;;;10.50;38.70;;;;;;5056392;28;20183;-91
2021/05/10 04:45:31;;;;;;;3.17;1.67;;;10.50;38.20;;;;;;5029206;28;20020;-88
2021/05/10 04:47:57;;;;;;;2.00;1.65;;;10.60;39.30;;;;;;5049972;28;20033;-89
2021/05/10 04:50:23;;;;;;;3.92;1.70;;;10.80;38.40;;;;;;5052201;28;20169;-89
2021/05/10 04:52:49;;;;;;;5.45;1.73;;;11.40;37.60;;;;;;5054856;28;20097;-90
2021/05/10 04:55:16;;;;;;;5.25;1.58;;;12.30;36.30;;;;;;5026461;28;20128;-92
2021/05/10 04:57:44;;;;;;;2.60;1.40;;;13.00;34.40;;;;;;5049966;28;20090;-91
2021/05/10 05:00:12;;;;;;;1.35;1.00;;;13.90;33.40;;;;;;5034326;28;20025;-90
2021/05/10 05:02:38;;;;;;;1.52;1.20;;;14.90;31.70;;;;;;5051984;28;20020;-91
2021/05/10 05:05:06;;;;;;;2.50;1.35;;;15.60;31.10;;;;;;5039850;28;20096;-91
2021/05/10 05:07:31;;;;;;;;;;;16.20;30.00;;;;;;5056595;28;20032;-90
2021/05/10 05:09:57;;;;;;;2.45;1.65;;;16.70;30.70;;;;;;5056392;28;19893;-91
2021/05/10 05:12:24;;;;;;;3.50;1.73;;;16.90;29.60;;;;;;5060252;28;20032;-91
2021/05/10 05:14:51;;;;;;;1.98;1.25;;;17.30;28.30;;;;;;5057227;28;20081;-90
2021/05/10 05:17:17;;;;;;;;;;;17.50;28.30;;;;;;5046517;28;20021;-91
2021/05/10 05:19:43;;;;;;;4.18;1.80;;;18.10;29.10;;;;;;5053462;28;19943;-90
2021/05/10 05:22:09;;;;;;;2.47;1.35;;;18.60;27.60;;;;;;5031199;28;20029;-93
2021/05/10 05:24:35;;;;;;;2.28;1.58;;;18.90;26.40;;;;;;5029194;28;20064;-91
2021/05/10 05:27:01;;;;;;;4.95;2.20;;;19.10;26.60;;;;;;5034551;28;20022;-91
2021/05/10 05:29:27;;;;;;;2.33;1.38;;;19.20;26.20;;;;;;5032468;28;20033;-91
2021/05/10 05:31:56;;;;;;;2.53;1.20;;;18.90;25.80;;;;;;5045226;28;20108;-93
2021/05/10 05:34:22;;;;;;;3.63;1.70;;;19.10;25.50;;;;;;5020131;28;20045;-90
2021/05/10 05:36:48;;;;;;;3.67;1.25;;;19.40;25.90;;;;;;5037121;28;20018;-94
2021/05/10 05:39:14;;;;;;;2.25;0.98;;;19.60;25.50;;;;;;5026660;28;20048;-93
2021/05/10 05:41:40;;;;;;;1.33;1.23;;;20.00;25.00;;;;;;5027497;28;20026;-92
2021/05/10 05:44:09;;;;;;;1.90;1.33;;;20.30;25.10;;;;;;5008562;28;20033;-89
2021/05/10 05:46:44;;;;;;;1.30;1.20;;;20.60;24.30;;;;;;5034986;28;20584;-92
2021/05/10 05:49:10;;;;;;;1.85;1.20;;;21.20;24.50;;;;;;5019237;28;20088;-90
2021/05/10 05:51:46;;;;;;;1.92;1.30;;;22.00;24.00;;;;;;5040242;28;20056;-90
2021/05/10 05:54:14;;;;;;;1.88;0.90;;;22.50;23.30;;;;;;5037695;28;20029;-90
2021/05/10 05:56:40;;;;;;;2.28;2.08;;;23.00;23.00;;;;;;5044583;28;20029;-88
2021/05/10 05:59:05;;;;;;;1.55;1.20;;;24.00;22.90;;;;;;5029303;28;20033;-92
2021/05/10 06:01:31;;;;;;;2.28;0.98;;;24.20;22.60;;;;;;5056859;28;20021;-89
2021/05/10 06:03:57;;;;;;;1.60;1.20;;;24.60;21.90;;;;;;5058792;28;20013;-92
2021/05/10 06:06:25;;;;;;;2.38;1.75;;;25.00;21.90;;;;;;5059385;28;20029;-93
2021/05/10 06:08:50;;;;;;;;;;;24.80;21.70;;;;;;5057487;28;20036;-91
2021/05/10 06:11:16;;;;;;;2.58;1.10;;;24.70;23.10;;;;;;5045847;28;20043;-91
2021/05/10 06:13:43;;;;;;;2.28;1.35;;;25.30;21.50;;;;;;5045775;28;20025;-88
2021/05/10 06:16:09;;;;;;;2.28;1.20;;;25.90;21.20;;;;;;5061048;28;20024;-90
2021/05/10 06:18:35;;;;;;;3.90;1.00;;;26.20;21.20;;;;;;5060014;28;20021;-91
2021/05/10 06:21:03;;;;;;;9.20;1.83;;;25.80;21.10;;;;;;5061101;28;20036;-91
2021/05/10 06:23:29;;;;;;;3.13;1.80;;;26.20;20.90;;;;;;5043538;28;20036;-90
2021/05/10 06:25:56;;;;;;;4.53;1.65;;;25.60;20.70;;;;;;5058733;28;20049;-89
2021/05/10 06:28:23;;;;;;;4.05;1.65;;;25.00;21.10;;;;;;5017867;28;20060;-90
2021/05/10 06:30:49;;;;;;;2.83;1.77;;;25.00;21.60;;;;;;5061907;28;20017;-92
2021/05/10 06:33:15;;;;;;;2.17;1.67;;;25.50;21.40;;;;;;5062608;28;20033;-91
2021/05/10 06:35:41;;;;;;;1.98;1.50;;;25.70;20.70;;;;;;5061661;28;20019;-91
2021/05/10 06:38:07;;;;;;;1.33;1.02;;;26.20;20.60;;;;;;5020374;28;20042;-92
2021/05/10 06:40:36;;;;;;;1.23;1.00;;;26.90;20.20;;;;;;5030062;28;20022;-91
2021/05/10 06:43:06;;;;;;;5.75;1.23;;;27.60;20.30;;;;;;5035740;28;20040;-91
2021/05/10 06:45:33;;;;;;;9.20;1.60;;;27.70;20.10;;;;;;5040242;28;20025;-91
2021/05/10 06:47:59;;;;;;;1.97;0.97;;;27.90;20.30;;;;;;5014967;28;20092;-91
2021/05/10 06:50:27;;;;;;;4.78;2.15;;;27.50;20.20;;;;;;5024019;28;20034;-93
2021/05/10 06:52:52;;;;;;;;;;;27.70;20.20;;;;;;5023706;28;20426;-92
2021/05/10 06:55:18;;;;;;;2.77;1.63;;;27.80;21.40;;;;;;5004602;28;19929;-92
2021/05/10 06:57:44;;;;;;;5.50;1.50;;;27.80;20.30;;;;;;5011950;28;20138;-91
2021/05/10 07:00:11;;;;;;;3.15;1.38;;;28.20;20.20;;;;;;5004516;28;20037;-95
2021/05/10 07:02:37;;;;;;;3.97;1.23;;;27.80;19.70;;;;;;5002749;28;20547;-92
2021/05/10 07:05:03;;;;;;;4.15;1.50;;;26.90;20.40;;;;;;5012229;28;20037;-92
2021/05/10 07:07:30;;;;;;;4.93;1.35;;;26.80;20.40;;;;;;5008037;28;20073;-88
2021/05/10 07:09:56;;;;;;;1.40;1.20;;;27.00;20.40;;;;;;5017235;28;20058;-91
2021/05/10 07:12:22;;;;;;;3.28;1.30;;;27.10;20.40;;;;;;4998330;28;20053;-90
2021/05/10 07:14:48;;;;;;;2.58;1.23;;;28.00;20.40;;;;;;5008557;28;20045;-91
2021/05/10 07:17:14;;;;;;;2.00;1.45;;;28.60;20.20;;;;;;5023176;28;20096;-91
2021/05/10 07:19:40;;;;;;;4.78;1.17;;;29.60;20.30;;;;;;5029824;28;20075;-94
2021/05/10 07:22:16;;;;;;;2.40;1.40;;;30.30;19.60;;;;;;5032123;28;20025;-91
2021/05/10 07:24:41;;;;;;;2.35;1.40;;;30.70;19.60;;;;;;5025941;28;20056;-91
2021/05/10 07:27:09;;;;;;;5.07;1.27;;;30.80;19.60;;;;;;5030278;28;20014;-91
2021/05/10 07:29:35;;;;;;;5.65;2.67;;;31.20;19.60;;;;;;5036082;28;20052;-91
2021/05/10 07:32:06;;;;;;;2.00;1.20;;;31.60;19.60;;;;;;5038102;28;20037;-93
2021/05/10 07:34:37;;;;;;;6.60;1.67;;;30.60;19.20;;;;;;5030398;28;20042;-93
2021/05/10 07:37:07;;;;;;;3.63;1.80;;;30.30;19.60;;;;;;5052502;28;20071;-91
2021/05/10 07:39:35;;;;;;;4.18;1.58;;;30.40;19.60;;;;;;5049526;28;20083;-92
2021/05/10 07:42:07;;;;;;;5.57;1.70;;;31.10;19.70;;;;;;5048736;28;20033;-95
2021/05/10 07:44:33;;;;;;;3.88;1.50;;;31.20;19.60;;;;;;5048526;28;20021;-90
2021/05/10 07:46:59;;;;;;;8.00;1.97;;;31.20;19.50;;;;;;5033894;28;20021;-91
2021/05/10 07:49:26;;;;;;;2.20;1.23;;;31.70;19.80;;;;;;5047574;28;20037;-93
2021/05/10 07:51:53;;;;;;;3.17;1.83;;;31.80;19.20;;;;;;5052975;28;20022;-92
2021/05/10 07:54:20;;;;;;;6.20;1.60;;;31.50;19.20;;;;;;5039511;28;20025;-93
2021/05/10 07:56:46;;;;;;;3.73;1.43;;;31.30;19.40;;;;;;5049996;28;20025;-93
2021/05/10 07:59:12;;;;;;;3.03;1.70;;;31.30;19.30;;;;;;5073251;28;20025;-92
2021/05/10 08:01:39;;;;;;;1.92;1.45;;;30.70;19.30;;;;;;5068468;28;20351;-91
2021/05/10 08:04:05;;;;;;;2.78;1.88;;;31.00;19.70;;;;;;5043159;28;20025;-91
2021/05/10 08:06:30;;;;;;;3.23;1.43;;;31.20;19.20;;;;;;5057843;28;20013;-90
2021/05/10 08:08:58;;;;;;;3.60;1.60;;;31.80;19.10;;;;;;5057555;28;20043;-93
2021/05/10 08:11:25;;;;;;;2.20;1.48;;;31.80;19.00;;;;;;5052465;28;20474;-90
2021/05/10 08:13:51;;;;;;;5.55;1.75;;;31.80;19.10;;;;;;5054151;28;20051;-87
2021/05/10 08:16:17;;;;;;;5.40;2.77;;;31.80;18.90;;;;;;5020547;28;20029;-89
2021/05/10 08:18:43;;;;;;;2.93;1.93;;;32.00;19.10;;;;;;5031967;28;20021;-86
2021/05/10 08:21:09;;;;;;;4.50;2.17;;;31.60;19.00;;;;;;5053596;28;20071;-87
2021/05/10 08:23:35;;;;;;;2.08;1.27;;;31.50;19.20;;;;;;5037218;28;20021;-84
2021/05/10 08:26:02;;;;;;;3.90;1.85;;;32.10;19.20;;;;;;5047174;28;20029;-85
2021/05/10 08:28:27;;;;;;;3.40;1.60;;;33.10;18.80;;;;;;5058326;28;20037;-84
2021/05/10 08:30:54;;;;;;;4.00;1.63;;;33.80;18.70;;;;;;5059185;28;20077;-86
2021/05/10 08:33:20;;;;;;;3.20;2.20;;;32.50;18.70;;;;;;5057019;28;20017;-85
2021/05/10 08:35:46;;;;;;;6.70;2.70;;;32.10;18.70;;;;;;5054685;28;20165;-83
2021/05/10 08:38:11;;;;;;;3.73;1.30;;;32.30;18.70;;;;;;5053180;28;20106;-89
2021/05/10 08:40:38;;;;;;;2.10;1.40;;;31.90;18.60;;;;;;5056841;28;20044;-90
2021/05/10 08:43:20;;;;;;;3.60;1.67;;;31.80;18.40;;;;;;5037811;28;20040;-89
2021/05/10 08:45:53;;;;;;;3.78;1.52;;;31.60;18.70;;;;;;5041002;28;20028;-89
2021/05/10 08:48:19;;;;;;;4.13;1.98;;;30.30;18.70;;;;;;5036354;28;20036;-84
2021/05/10 08:50:45;;;;;;;3.33;2.53;;;29.50;19.40;;;;;;5065810;28;20025;-85
2021/05/10 08:53:13;;;;;;;2.53;1.63;;;29.70;19.60;;;;;;5058974;28;20048;-86
2021/05/10 08:55:40;;;;;;;2.00;1.48;;;30.30;19.00;;;;;;5054474;28;20032;-85
2021/05/10 08:58:08;;;;;;;3.97;1.42;;;30.80;19.40;;;;;;5057594;28;20445;-84
2021/05/10 09:00:50;;;;;;;4.72;2.95;;;31.30;18.80;;;;;;5051429;28;20083;-85
2021/05/10 09:03:16;;;;;;;5.07;1.63;;;32.00;19.10;;;;;;5050463;28;20078;-89
2021/05/10 09:05:49;;;;;;;2.78;1.35;;;31.90;19.00;;;;;;5057869;28;20032;-91
2021/05/10 09:08:17;;;;;;;3.10;1.63;;;31.00;18.80;;;;;;5061585;28;20115;-93
2021/05/10 09:11:12;;;;;;;3.47;1.20;;;30.40;19.10;;;;;;5049894;28;20029;-95
2021/05/10 09:13:45;;;;;;;3.83;1.27;;;30.60;18.80;;;;;;5044236;28;20051;-92
2021/05/10 09:16:13;;;;;;;3.10;1.63;;;30.60;18.50;;;;;;5035678;28;20034;-90
2021/05/10 09:18:39;;;;;;;4.15;1.70;;;30.90;19.20;;;;;;5052737;28;20505;-90
2021/05/10 09:21:16;;;;;;;2.45;1.73;;;30.90;18.70;;;;;;5062578;28;20415;-87
2021/05/10 09:23:44;;;;;;;2.67;1.60;;;30.80;18.70;;;;;;5054805;28;20028;-90
2021/05/10 09:26:11;;;;;;;5.95;1.98;;;31.20;18.60;;;;;;5064594;28;20045;-89
2021/05/10 09:28:42;;;;;;;3.25;1.85;;;31.20;18.50;;;;;;5054460;28;20048;-91
2021/05/10 09:31:10;;;;;;;5.32;2.88;;;30.90;18.70;;;;;;5061977;28;20093;-86
2021/05/10 09:33:45;;;;;;;4.40;1.50;;;30.10;18.90;;;;;;5062463;28;20052;-89
2021/05/10 09:36:30;;;;;;;3.13;1.63;;;29.90;18.90;;;;;;5059641;28;20017;-86
2021/05/10 09:38:57;;;;;;;3.08;1.98;;;29.80;18.40;;;;;;5039209;28;20521;-87
2021/05/10 09:41:23;;;;;;;2.83;1.55;;;28.80;18.60;;;;;;5056672;28;20035;-87
2021/05/10 09:44:07;;;;;;;2.53;1.65;;;28.60;18.70;;;;;;5040245;28;20024;-86
2021/05/10 09:46:41;;;;;;;2.80;1.23;;;29.00;19.10;;;;;;5039131;28;20044;-87
2021/05/10 09:49:08;;;;;;;6.72;2.42;;;29.30;19.40;;;;;;5057474;28;20385;-87
2021/05/10 09:51:34;;;;;;;3.83;1.40;;;29.10;18.90;;;;;;5056041;28;20025;-88
2021/05/10 09:54:15;;;;;;;3.30;1.30;;;28.20;19.40;;;;;;5061208;28;20485;-83
2021/05/10 09:56:41;;;;;;;7.13;1.67;;;28.40;19.40;;;;;;5038945;28;20047;-87
2021/05/10 09:59:13;;;;;;;2.38;2.15;;;28.80;19.10;;;;;;5039220;28;20466;-89
2021/05/10 10:01:43;;;;;;;6.53;1.38;;;29.30;19.60;;;;;;5056552;28;20098;-85
2021/05/10 10:04:10;;;;;;;3.33;1.13;;;28.70;19.30;;;;;;5056220;28;20028;-89
2021/05/10 10:06:36;;;;;;;4.43;1.80;;;28.70;19.30;;;;;;5040088;28;20025;-87
2021/05/10 10:09:04;;;;;;;3.50;1.77;;;29.10;19.50;;;;;;5060330;28;20049;-88
2021/05/10 10:11:29;;;;;;;3.92;2.80;;;29.70;19.10;;;;;;5031084;28;20017;-89
2021/05/10 10:13:56;;;;;;;3.50;1.80;;;29.40;19.30;;;;;;5057670;28;20067;-89
2021/05/10 10:16:24;;;;;;;2.38;1.80;;;27.90;19.10;;;;;;5041479;28;20466;-90
2021/05/10 10:18:52;;;;;;;3.47;1.63;;;27.00;19.70;;;;;;5056214;28;20178;-86
2021/05/10 10:21:19;;;;;;;3.65;2.67;;;27.00;19.80;;;;;;5045541;28;20024;-88
2021/05/10 10:24:05;;;;;;;3.10;1.70;;;26.60;19.10;;;;;;5041706;28;20033;-86
2021/05/10 10:26:34;;;;;;;1.77;1.40;;;25.20;19.30;;;;;;5056911;28;20033;-89
2021/05/10 10:29:11;;;;;;;2.95;2.15;;;23.60;20.60;;;;;;5057231;28;20037;-88
2021/05/10 10:31:45;;;;;;;2.67;1.80;;;22.40;22.00;;;;;;5057262;28;20056;-86
2021/05/10 10:34:29;;;;;;;1.75;1.45;;;21.20;23.30;;;;;;5039577;28;20373;-85
2021/05/10 10:36:59;;;;;;;9.15;4.88;;;20.30;23.90;;;;;;5057373;28;20017;-85
2021/05/10 10:39:28;;;;;;;4.65;1.95;;;19.40;24.70;;;;;;5059006;28;20108;-86
2021/05/10 10:41:57;;;;;;;2.45;1.52;;;18.70;25.40;;;;;;5058039;28;20057;-86
2021/05/10 10:44:27;;;;;;;3.65;1.58;;;18.40;25.20;;;;;;5042761;28;20022;-88
2021/05/10 10:46:53;;;;;;;2.92;2.08;;;17.90;25.90;;;;;;5057688;28;20068;-88
2021/05/10 10:49:37;;;;;;;3.53;2.10;;;17.60;25.70;;;;;;5041096;28;20494;-92
2021/05/10 10:52:15;;;;;;;6.70;2.63;;;17.30;26.40;;;;;;5057016;28;20025;-86
2021/05/10 10:54:41;;;;;;;3.53;1.60;;;17.10;27.40;;;;;;5053437;28;20021;-93
2021/05/10 10:57:07;;;;;;;3.88;1.85;;;17.00;27.10;;;;;;5076281;28;20029;-90
2021/05/10 10:59:38;;;;;;;2.97;2.05;;;16.90;26.40;;;;;;5044706;28;20025;-86
2021/05/10 11:02:18;;;;;;;3.38;1.65;;;16.70;26.90;;;;;;5060144;28;20021;-89
2021/05/10 11:04:46;;;;;;;2.92;2.00;;;16.70;27.00;;;;;;5052710;28;20017;-88
2021/05/10 11:07:13;;;;;;;3.45;1.63;;;16.60;27.30;;;;;;5050375;28;20046;-89
2021/05/10 11:09:49;;;;;;;3.10;1.67;;;16.50;27.80;;;;;;5071889;28;20040;-92
2021/05/10 11:12:47;;;;;;;2.38;1.73;;;16.40;28.30;;;;;;5056570;28;20017;-93
2021/05/10 11:15:38;;;;;;;1.92;1.73;;;16.40;28.90;;;;;;5061791;28;20033;-91
2021/05/10 11:18:06;;;;;;;3.20;1.85;;;16.30;28.90;;;;;;5059773;28;20026;-89
2021/05/10 11:20:50;;;;;;;3.17;1.83;;;16.30;28.90;;;;;;5040242;28;20049;-92
2021/05/10 11:23:28;;;;;;;3.00;1.83;;;16.20;28.90;;;;;;5037737;28;20021;-90
2021/05/10 11:25:56;;;;;;;3.95;1.67;;;16.20;28.50;;;;;;5061328;28;20060;-88
2021/05/10 11:28:25;;;;;;;3.10;1.90;;;16.20;28.60;;;;;;5076291;28;20037;-90
2021/05/10 11:31:29;;;;;;;2.70;1.88;;;16.20;28.70;;;;;;5067342;28;20442;-82
2021/05/10 11:33:54;;;;;;;2.53;1.75;;;16.20;28.90;;;;;;5033206;28;20052;-82
2021/05/10 11:36:30;;;;;;;6.35;1.98;;;16.20;28.90;;;;;;5046886;28;20021;-85
2021/05/10 11:39:11;;;;;;;4.75;3.13;;;16.00;29.00;;;;;;5032342;28;20029;-83
2021/05/10 11:41:44;;;;;;;2.42;1.52;;;16.00;29.10;;;;;;5055216;28;20075;-84
2021/05/10 11:44:30;;;;;;;4.63;2.10;;;16.00;29.40;;;;;;5055246;28;20021;-84
2021/05/10 11:47:19;;;;;;;3.95;2.00;;;16.10;29.50;;;;;;5051236;28;20024;-84
2021/05/10 11:49:50;;;;;;;3.55;1.88;;;16.20;29.10;;;;;;5053955;28;20091;-85
2021/05/10 11:52:22;;;;;;;2.30;1.70;;;16.20;28.50;;;;;;5055443;28;20032;-83
2021/05/10 11:54:49;;;;;;;8.30;2.25;;;16.20;28.60;;;;;;5056169;28;20020;-87
2021/05/10 11:57:25;;;;;;;8.38;2.58;;;16.20;28.80;;;;;;5057236;28;20035;-87
2021/05/10 12:02:28;;;;;;;3.22;2.17;;;16.10;30.00;;;;;;5065617;28;20025;-89
2021/05/10 12:04:58;;;;;;;5.18;2.15;;;16.20;29.00;;;;;;5052476;28;20029;-87
2021/05/10 12:07:27;;;;;;;6.55;2.05;;;16.10;29.20;;;;;;5043233;28;20025;-90
2021/05/10 12:09:57;;;;;;;4.20;2.05;;;16.10;28.90;;;;;;5039280;28;20051;-89
2021/05/10 12:12:30;;;;;;;2.90;1.88;;;16.10;29.00;;;;;;5056493;28;20035;-88
2021/05/10 12:15:06;;;;;;;2.53;1.80;;;16.10;29.20;;;;;;5055713;28;20136;-89
2021/05/10 12:17:33;;;;;;;3.78;2.60;;;16.10;29.20;;;;;;5030081;28;20108;-86
2021/05/10 12:20:33;;;;;;;2.22;1.38;;;16.10;29.10;;;;;;5047656;28;20029;-86
2021/05/10 12:23:01;;;;;;;2.63;2.15;;;16.10;29.00;;;;;;4951335;29;20051;-87
2021/05/10 12:25:31;;;;;;;4.97;2.10;;;16.10;29.60;;;;;;4953882;29;20147;-86
2021/05/10 12:28:08;;;;;;;2.85;1.90;;;16.10;29.30;;;;;;4946519;29;20024;-85
2021/05/10 12:30:47;;;;;;;4.38;2.05;;;16.10;29.10;;;;;;4954586;28;20090;-87
2021/05/10 12:33:20;;;;;;;2.97;2.05;;;16.10;29.50;;;;;;4937120;29;20114;-82
2021/05/10 12:35:48;;;;;;;2.35;1.88;;;16.00;29.40;;;;;;4972085;28;20027;-85
2021/05/10 12:38:42;;;;;;;3.50;2.30;;;16.00;29.60;;;;;;4972653;28;20038;-82
2021/05/10 12:41:24;;;;;;;4.10;2.40;;;16.10;29.60;;;;;;4961054;28;20130;-93
2021/05/10 12:43:53;;;;;;;3.47;2.50;;;16.10;29.50;;;;;;4974861;28;20037;-86
2021/05/10 12:46:21;;;;;;;3.08;2.13;;;16.20;29.60;;;;;;4961555;28;20406;-84
2021/05/10 12:48:50;;;;;;;4.68;2.30;;;16.20;29.50;;;;;;4972284;28;20121;-89
2021/05/10 12:51:21;;;;;;;3.30;2.33;;;16.30;29.10;;;;;;4980802;28;20042;-89
2021/05/10 12:54:01;;;;;;;4.68;2.22;;;16.30;29.00;;;;;;4975981;28;20042;-89
2021/05/10 12:56:29;;;;;;;3.92;2.03;;;16.30;28.90;;;;;;4957853;28;20019;-85
2021/05/10 12:59:00;;;;;;;3.05;1.63;;;16.20;29.50;;;;;;5012997;28;20551;-84
2021/05/10 13:01:29;;;;;;;3.08;2.40;;;16.20;29.30;;;;;;5033546;28;20029;-86
2021/05/10 13:03:58;;;;;;;4.07;2.00;;;16.30;29.50;;;;;;5045171;28;20115;-89
2021/05/10 13:06:31;;;;;;;5.95;2.28;;;16.30;29.10;;;;;;5053362;28;20017;-87
2021/05/10 13:09:24;;;;;;;4.80;2.00;;;16.30;29.30;;;;;;5056491;28;20109;-87
2021/05/10 13:11:55;;;;;;;3.47;1.92;;;16.30;29.40;;;;;;5062480;28;20076;-88